createdAt,value
2019-06-20T00:03:49.099Z,76.35
2019-06-20T00:08:54.553Z,75.86
2019-06-20T00:14:00.754Z,75.79
2019-06-20T00:19:06.011Z,75.97
2019-06-20T00:24:11.259Z,76.06
2019-06-20T00:29:16.441Z,76.80
2019-06-20T00:34:21.721Z,76.53
2019-06-20T00:39:26.968Z,77.16
2019-06-20T00:44:32.477Z,77.06
2019-06-20T00:49:38.454Z,76.95
2019-06-20T00:54:44.320Z,77.13
2019-06-20T00:59:49.624Z,77.62
2019-06-20T01:04:54.961Z,77.92
2019-06-20T01:10:00.198Z,77.63
2019-06-20T01:15:07.725Z,77.68
2019-06-20T01:20:14.763Z,77.62
2019-06-20T01:25:37.190Z,77.78
2019-06-20T01:30:42.795Z,78.12
2019-06-20T01:35:48.635Z,78.17
2019-06-20T01:40:54.214Z,77.70
2019-06-20T01:45:59.627Z,76.69
2019-06-20T01:51:04.940Z,76.43
2019-06-20T01:56:11.250Z,76.30
2019-06-20T02:01:16.859Z,76.32
2019-06-20T02:06:22.086Z,75.94
2019-06-20T02:11:27.404Z,75.83
2019-06-20T02:16:33.906Z,75.72
2019-06-20T02:21:39.193Z,75.37
2019-06-20T02:26:44.510Z,75.36
2019-06-20T02:31:50.215Z,75.26
2019-06-20T02:36:55.484Z,75.09
2019-06-20T02:42:00.986Z,75.82
2019-06-20T02:47:06.560Z,75.45
2019-06-20T02:52:12.155Z,75.22
2019-06-20T02:57:17.680Z,74.86
2019-06-20T03:02:22.963Z,74.44
2019-06-20T03:07:28.255Z,74.40
2019-06-20T03:12:33.435Z,74.24
2019-06-20T03:17:39.045Z,73.35
2019-06-20T03:22:44.404Z,73.65
2019-06-20T03:27:49.721Z,73.24
2019-06-20T03:32:54.907Z,73.35
2019-06-20T03:38:00.286Z,72.89
2019-06-20T03:43:05.909Z,73.23
2019-06-20T03:48:11.180Z,73.20
2019-06-20T03:53:16.367Z,73.04
2019-06-20T03:58:21.446Z,72.61
2019-06-20T04:03:26.618Z,72.43
2019-06-20T04:08:31.738Z,71.59
2019-06-20T04:13:36.971Z,71.36
2019-06-20T04:18:43.491Z,71.63
2019-06-20T04:23:48.661Z,72.37
2019-06-20T04:28:54.174Z,72.47
2019-06-20T04:33:59.575Z,72.99
2019-06-20T04:39:18.604Z,72.47
2019-06-20T04:44:16.461Z,72.95
2019-06-20T04:49:21.660Z,73.04
2019-06-20T04:54:26.933Z,73.02
2019-06-20T04:59:32.161Z,73.02
2019-06-20T05:04:37.415Z,72.75
2019-06-20T05:09:42.833Z,72.58
2019-06-20T05:14:48.569Z,72.05
2019-06-20T05:19:53.731Z,71.36
2019-06-20T05:24:58.997Z,71.16
2019-06-20T05:30:09.891Z,71.10
2019-06-20T05:35:15.864Z,70.78
2019-06-20T05:40:21.105Z,71.02
2019-06-20T05:45:28.128Z,70.09
2019-06-20T05:50:33.317Z,69.95
2019-06-20T05:55:38.580Z,69.88
2019-06-20T06:00:43.793Z,69.54
2019-06-20T06:05:49.091Z,69.00
2019-06-20T06:10:54.317Z,68.59
2019-06-20T06:16:00.235Z,67.25
2019-06-20T06:21:06.499Z,66.07
2019-06-20T06:26:11.752Z,65.50
2019-06-20T06:31:17.221Z,64.83
2019-06-20T06:36:22.571Z,64.12
2019-06-20T06:41:27.664Z,62.74
2019-06-20T06:46:43.578Z,62.48
2019-06-20T06:51:40.122Z,62.85
2019-06-20T06:56:45.609Z,61.95
2019-06-20T07:01:50.823Z,62.13
2019-06-20T07:06:56.110Z,63.05
2019-06-20T07:12:02.883Z,62.90
2019-06-20T07:17:08.556Z,62.84
2019-06-20T07:22:13.814Z,61.68
2019-06-20T07:27:19.150Z,63.34
2019-06-20T07:32:24.779Z,63.45
2019-06-20T07:37:30.610Z,63.60
2019-06-20T07:42:35.894Z,62.81
2019-06-20T07:47:42.413Z,62.13
2019-06-20T07:53:01.539Z,61.73
2019-06-20T07:57:55.028Z,61.92
2019-06-20T08:03:00.256Z,62.06
2019-06-20T08:08:05.587Z,61.77
2019-06-20T08:13:10.964Z,61.88
2019-06-20T08:18:16.288Z,61.31
2019-06-20T08:28:42.838Z,62.13
2019-06-20T08:33:49.864Z,62.61
2019-06-20T08:38:56.921Z,62.65
2019-06-20T08:44:03.920Z,62.55
2019-06-20T08:49:10.546Z,62.42
2019-06-20T08:54:15.877Z,62.28
2019-06-20T08:59:24.628Z,62.87
2019-06-20T09:04:28.384Z,62.86
2019-06-20T09:09:33.602Z,62.70
2019-06-20T09:14:38.842Z,63.03
2019-06-20T09:19:44.334Z,62.53
2019-06-20T09:24:49.554Z,62.17
2019-06-20T09:29:54.733Z,61.30
2019-06-20T09:34:59.979Z,60.78
2019-06-20T09:40:10.007Z,61.38
2019-06-20T09:45:21.474Z,61.29
2019-06-20T09:50:26.986Z,60.01
2019-06-20T09:55:32.439Z,60.42
2019-06-20T10:00:39.195Z,59.60
2019-06-20T10:05:44.396Z,60.64
2019-06-20T10:10:50.724Z,60.80
2019-06-20T10:15:57.214Z,59.04
2019-06-20T10:21:02.540Z,59.04
2019-06-20T10:26:07.828Z,59.79
2019-06-20T10:31:13.245Z,58.61
2019-06-20T10:36:19.326Z,58.80
2019-06-20T10:41:24.969Z,58.20
2019-06-20T10:46:30.453Z,58.33
2019-06-20T10:51:37.763Z,56.74
2019-06-20T10:56:44.085Z,56.44
2019-06-20T11:01:50.722Z,55.50
2019-06-20T11:06:56.149Z,54.89
2019-06-20T11:12:01.463Z,54.63
2019-06-20T11:17:06.870Z,52.38
2019-06-20T11:22:12.274Z,50.93
2019-06-20T11:27:17.538Z,51.71
2019-06-20T11:32:22.714Z,51.68
2019-06-20T11:37:27.919Z,51.63
2019-06-20T11:42:33.081Z,53.93
2019-06-20T11:47:38.544Z,54.34
2019-06-20T11:52:45.773Z,54.03
2019-06-20T11:57:51.288Z,53.68
2019-06-20T12:02:56.437Z,56.02
2019-06-20T12:08:01.611Z,56.30
2019-06-20T12:13:07.269Z,57.06
2019-06-20T12:18:12.825Z,57.15
2019-06-20T12:23:18.075Z,58.26
2019-06-20T12:28:23.330Z,58.61
2019-06-20T12:33:29.832Z,58.78
2019-06-20T12:38:34.996Z,59.09
2019-06-20T12:43:40.359Z,59.47
2019-06-20T12:48:46.989Z,50.06
2019-06-20T12:53:53.235Z,49.01
2019-06-20T12:58:58.575Z,50.79
2019-06-20T13:04:05.476Z,50.59
2019-06-20T13:09:10.869Z,50.78
2019-06-20T13:14:16.210Z,51.23
2019-06-20T13:19:21.446Z,61.15
2019-06-20T13:24:26.682Z,70.90
2019-06-20T13:29:32.973Z,74.64
2019-06-20T13:34:39.879Z,76.42
2019-06-20T13:39:45.768Z,76.56
2019-06-20T13:44:52.037Z,71.87
2019-06-20T13:49:57.500Z,71.87
2019-06-20T13:55:02.767Z,75.91
2019-06-20T14:00:09.863Z,76.48
2019-06-20T14:05:15.783Z,77.10
2019-06-20T14:10:21.401Z,76.08
2019-06-20T14:15:27.228Z,77.06
2019-06-20T14:20:32.711Z,77.07
2019-06-20T14:25:38.035Z,78.06
2019-06-20T14:30:45.008Z,77.97
2019-06-20T14:35:51.192Z,77.35
2019-06-20T14:40:56.605Z,77.53
2019-06-20T14:46:02.070Z,77.23
2019-06-20T14:51:08.553Z,79.41
2019-06-20T14:56:14.149Z,77.76
2019-06-20T15:01:19.494Z,79.62
2019-06-20T15:06:24.816Z,78.92
2019-06-20T15:11:30.056Z,76.14
2019-06-20T15:16:35.147Z,77.90
2019-06-20T15:21:40.655Z,77.47
2019-06-20T15:26:47.657Z,75.01
2019-06-20T15:31:53.206Z,74.25
2019-06-20T15:36:58.386Z,70.12
2019-06-20T15:42:03.685Z,68.28
2019-06-20T15:47:08.874Z,67.05
2019-06-20T15:52:14.115Z,58.62
2019-06-20T15:57:19.476Z,52.48
2019-06-20T16:02:25.041Z,50.84
2019-06-20T16:07:30.415Z,49.26
2019-06-20T16:12:35.552Z,49.84
2019-06-20T16:17:41.252Z,51.10
2019-06-20T16:22:46.934Z,52.93
2019-06-20T16:27:52.499Z,51.67
2019-06-20T16:32:57.743Z,50.71
2019-06-20T16:38:03.168Z,49.62
2019-06-20T16:43:08.773Z,47.93
2019-06-20T16:48:14.045Z,46.17
2019-06-20T16:53:19.204Z,46.12
2019-06-20T16:58:24.589Z,47.88
2019-06-20T17:03:41.188Z,46.37
2019-06-20T17:08:37.148Z,48.41
2019-06-20T17:13:42.466Z,49.34
2019-06-20T17:18:47.789Z,46.96
2019-06-20T17:23:53.229Z,51.90
2019-06-20T17:28:58.640Z,54.44
2019-06-20T17:34:04.406Z,58.63
2019-06-20T17:39:09.975Z,58.02
2019-06-20T17:44:15.491Z,58.05
2019-06-20T17:49:20.576Z,60.49
2019-06-20T17:54:25.808Z,60.00
2019-06-20T17:59:31.162Z,58.67
2019-06-20T18:04:36.625Z,60.51
2019-06-20T18:09:42.169Z,62.61
2019-06-20T18:14:49.448Z,62.04
2019-06-20T18:19:55.268Z,62.22
2019-06-20T18:25:00.457Z,63.70
2019-06-20T18:30:09.699Z,62.72
2019-06-20T18:35:15.658Z,63.67
2019-06-20T18:40:21.591Z,65.41
2019-06-20T18:45:26.923Z,69.98
2019-06-20T18:50:32.230Z,73.00
2019-06-20T18:55:37.544Z,75.13
2019-06-20T19:00:43.230Z,74.54
2019-06-20T19:05:48.790Z,75.30
2019-06-20T19:10:54.282Z,75.57
2019-06-20T19:16:00.014Z,74.49
2019-06-20T19:21:05.359Z,73.40
2019-06-20T19:26:11.004Z,74.18
2019-06-20T19:31:16.309Z,75.03
2019-06-20T19:36:21.967Z,74.33
2019-06-20T19:41:27.312Z,74.64
2019-06-20T19:46:32.519Z,75.39
2019-06-20T19:51:39.203Z,75.86
2019-06-20T19:56:44.541Z,75.44
2019-06-20T20:01:50.195Z,76.20
2019-06-20T20:06:55.536Z,76.31
2019-06-20T20:12:01.145Z,76.01
2019-06-20T20:17:06.488Z,76.30
2019-06-20T20:22:11.663Z,76.50
2019-06-20T20:27:17.089Z,76.13
2019-06-20T20:32:22.267Z,76.26
2019-06-20T20:37:27.453Z,76.60
2019-06-20T20:42:32.836Z,74.48
2019-06-20T20:47:38.284Z,73.68
2019-06-20T20:52:43.937Z,74.21
2019-06-20T20:57:49.133Z,74.93
2019-06-20T21:02:55.412Z,75.63
2019-06-20T21:08:00.871Z,75.89
2019-06-20T21:13:06.498Z,75.22
2019-06-20T21:18:11.915Z,75.10
2019-06-20T21:23:17.079Z,74.52
2019-06-20T21:28:22.611Z,74.52
2019-06-20T21:33:28.284Z,74.61
2019-06-20T21:38:34.120Z,75.22
2019-06-20T21:43:39.351Z,75.53
2019-06-20T21:48:44.777Z,75.60
2019-06-20T21:53:49.865Z,75.30
2019-06-20T21:58:55.288Z,75.07
2019-06-20T22:04:00.686Z,75.06
2019-06-20T22:09:08.706Z,76.58
2019-06-20T22:14:15.469Z,76.72
2019-06-20T22:19:20.678Z,77.04
2019-06-20T22:24:25.887Z,77.28
2019-06-20T22:29:31.295Z,77.15
2019-06-20T22:34:36.747Z,78.16
2019-06-20T22:39:41.997Z,76.68
2019-06-20T22:44:49.088Z,76.47
2019-06-20T22:49:54.499Z,75.94
2019-06-20T22:54:59.729Z,76.12
2019-06-20T23:00:08.197Z,76.00
2019-06-20T23:05:15.142Z,75.69
2019-06-20T23:10:20.496Z,76.33
2019-06-20T23:15:25.957Z,76.15
2019-06-20T23:20:31.460Z,76.18
2019-06-20T23:25:38.377Z,76.70
2019-06-20T23:30:44.690Z,76.48
2019-06-20T23:35:49.951Z,76.37
2019-06-20T23:40:55.153Z,77.18
2019-06-20T23:46:00.399Z,76.56
2019-06-20T23:51:05.696Z,76.38
2019-06-20T23:56:11.014Z,77.11
